Time;durP1;ratioP1;P1;durP2;ratioP2;P2;SDS_P1;SDS_P2;PMS_P1;PMS_P2;Temp;Humidity;BMP_temperature;BMP_pressure;BME280_temperature;BME280_humidity;BME280_pressure;Samples;Min_cycle;Max_cycle;Signal;HPM_P1;HPM_P2
2023/09/18 00:00:09;;;;;;;23.88;18.70;;;;;;;;;;5000365;28;99765;-77
2023/09/18 00:02:35;;;;;;;26.65;18.08;;;;;;;;;;4999120;28;100031;-77
2023/09/18 00:05:02;;;;;;;23.38;17.52;;;;;;;;;;4999258;28;100123;-78
2023/09/18 00:07:30;;;;;;;28.02;18.38;;;;;;;;;;4998207;28;99013;-78
2023/09/18 00:09:56;;;;;;;28.80;19.75;;;;;;;;;;5000026;28;101227;-78
2023/09/18 00:12:23;;;;;;;28.20;17.65;;;;;;;;;;4996604;28;100067;-78
2023/09/18 00:14:50;;;;;;;23.88;18.50;;;;;;;;;;4998499;28;99920;-78
2023/09/18 00:17:16;;;;;;;27.48;17.70;;;;;;;;;;4998878;28;99223;-79
2023/09/18 00:19:43;;;;;;;26.95;17.83;;;;;;;;;;4998884;28;99784;-77
2023/09/18 00:22:09;;;;;;;27.98;18.65;;;;;;;;;;4995785;28;99497;-78
2023/09/18 00:24:36;;;;;;;23.75;18.58;;;;;;;;;;4996910;28;99982;-78
2023/09/18 00:27:03;;;;;;;27.02;19.50;;;;;;;;;;4996568;28;99002;-78
2023/09/18 00:29:29;;;;;;;26.35;19.45;;;;;;;;;;4997229;28;98708;-78
2023/09/18 00:31:56;;;;;;;29.05;18.55;;;;;;;;;;4998032;28;99182;-77
2023/09/18 00:34:23;;;;;;;27.70;19.90;;;;;;;;;;5001815;28;99428;-77
2023/09/18 00:36:49;;;;;;;24.52;18.05;;;;;;;;;;4996566;28;99295;-75
2023/09/18 00:39:16;;;;;;;26.98;19.77;;;;;;;;;;4999463;28;99102;-78
2023/09/18 00:41:43;;;;;;;29.10;19.08;;;;;;;;;;4993423;28;100248;-76
2023/09/18 00:44:10;;;;;;;31.92;20.13;;;;;;;;;;4997167;28;101028;-78
2023/09/18 00:46:36;;;;;;;25.63;19.63;;;;;;;;;;4998767;28;99994;-78
2023/09/18 00:49:03;;;;;;;30.73;19.23;;;;;;;;;;4995093;28;99667;-77
2023/09/18 00:51:29;;;;;;;27.35;19.63;;;;;;;;;;4996350;28;100243;-77
2023/09/18 00:53:56;;;;;;;26.83;20.48;;;;;;;;;;5000612;28;98969;-79
2023/09/18 00:56:23;;;;;;;28.50;20.08;;;;;;;;;;5001061;28;99708;-77
2023/09/18 00:58:50;;;;;;;30.73;19.90;;;;;;;;;;4998898;28;99853;-78
2023/09/18 01:01:22;;;;;;;24.70;19.02;;;;;;;;;;4995311;28;99783;-79
2023/09/18 01:03:53;;;;;;;26.33;19.83;;;;;;;;;;5027724;27;99916;-78
2023/09/18 01:06:20;;;;;;;32.15;18.52;;;;;;;;;;4994879;28;99281;-77
2023/09/18 01:08:50;;;;;;;24.20;19.17;;;;;;;;;;4996287;28;99352;-78
2023/09/18 01:11:26;;;;;;;28.52;19.75;;;;;;;;;;4994017;28;99750;-77
2023/09/18 01:14:06;;;;;;;30.55;20.70;;;;;;;;;;4996337;28;99666;-77
2023/09/18 01:16:39;;;;;;;25.40;20.08;;;;;;;;;;4997470;28;99430;-78
2023/09/18 01:19:06;;;;;;;26.60;19.27;;;;;;;;;;4995832;28;101817;-78
2023/09/18 01:21:33;;;;;;;28.98;19.80;;;;;;;;;;4995012;28;99939;-77
2023/09/18 01:23:59;;;;;;;26.67;19.75;;;;;;;;;;4999379;28;99582;-77
2023/09/18 01:26:26;;;;;;;23.13;17.90;;;;;;;;;;4997349;28;100191;-77
2023/09/18 01:28:53;;;;;;;26.40;18.90;;;;;;;;;;4999507;28;99343;-78
2023/09/18 01:31:20;;;;;;;31.48;19.95;;;;;;;;;;5009029;28;101778;-77
2023/09/18 01:33:48;;;;;;;22.75;18.60;;;;;;;;;;5000289;28;99731;-77
2023/09/18 01:36:16;;;;;;;29.40;19.30;;;;;;;;;;4996663;28;99886;-77
2023/09/18 01:38:43;;;;;;;23.80;18.35;;;;;;;;;;4995069;28;100735;-79
2023/09/18 01:41:09;;;;;;;28.17;18.73;;;;;;;;;;4998501;28;98344;-76
2023/09/18 01:43:37;;;;;;;24.35;18.75;;;;;;;;;;4996745;28;100799;-78
2023/09/18 01:46:05;;;;;;;28.25;18.58;;;;;;;;;;5008009;28;100432;-78
2023/09/18 01:48:32;;;;;;;24.88;19.02;;;;;;;;;;4995206;28;99738;-77
2023/09/18 01:50:58;;;;;;;22.48;18.83;;;;;;;;;;4995097;28;98855;-77
2023/09/18 01:53:26;;;;;;;23.02;18.60;;;;;;;;;;4995553;28;100049;-78
2023/09/18 01:55:52;;;;;;;24.38;18.50;;;;;;;;;;4997885;28;99585;-77
2023/09/18 01:58:19;;;;;;;26.85;18.33;;;;;;;;;;4998504;28;100842;-77
2023/09/18 02:00:46;;;;;;;27.80;17.65;;;;;;;;;;4998076;28;98991;-78
2023/09/18 02:03:13;;;;;;;21.02;17.90;;;;;;;;;;4998758;28;99249;-78
2023/09/18 02:05:59;;;;;;;23.90;16.60;;;;;;;;;;4998278;28;98291;-79
2023/09/18 02:08:26;;;;;;;20.85;16.40;;;;;;;;;;4996022;28;99547;-78
2023/09/18 02:10:54;;;;;;;24.60;16.98;;;;;;;;;;4995393;28;101685;-78
2023/09/18 02:13:21;;;;;;;24.77;17.50;;;;;;;;;;4995927;28;99962;-79
2023/09/18 02:15:47;;;;;;;22.08;18.00;;;;;;;;;;4999465;28;98751;-79
2023/09/18 02:18:15;;;;;;;25.55;17.52;;;;;;;;;;4995760;28;100928;-79
2023/09/18 02:20:44;;;;;;;27.15;18.17;;;;;;;;;;4993160;28;100073;-78
2023/09/18 02:23:10;;;;;;;25.95;18.77;;;;;;;;;;5011794;27;100970;-77
2023/09/18 02:25:37;;;;;;;22.85;17.63;;;;;;;;;;5016612;28;99852;-78
2023/09/18 02:28:04;;;;;;;31.33;18.73;;;;;;;;;;4996416;28;100099;-79
2023/09/18 02:30:32;;;;;;;24.85;18.50;;;;;;;;;;4998502;28;99596;-78
2023/09/18 02:32:59;;;;;;;29.27;19.63;;;;;;;;;;4998449;28;100341;-78
2023/09/18 02:35:26;;;;;;;27.20;19.60;;;;;;;;;;4999361;28;101227;-78
2023/09/18 02:37:53;;;;;;;24.25;18.73;;;;;;;;;;4997355;28;99357;-79
2023/09/18 02:40:19;;;;;;;25.67;18.00;;;;;;;;;;5001549;28;98172;-78
2023/09/18 02:42:46;;;;;;;31.15;19.17;;;;;;;;;;4998520;28;99853;-78
2023/09/18 02:45:12;;;;;;;27.13;19.42;;;;;;;;;;5004490;28;98911;-78
2023/09/18 02:47:41;;;;;;;23.60;18.15;;;;;;;;;;4999160;28;100369;-78
2023/09/18 02:50:10;;;;;;;27.50;18.60;;;;;;;;;;4997416;28;99581;-79
2023/09/18 02:52:37;;;;;;;28.58;19.15;;;;;;;;;;5010890;28;98624;-79
2023/09/18 02:55:05;;;;;;;35.92;19.30;;;;;;;;;;4998363;28;101122;-77
2023/09/18 02:57:32;;;;;;;28.45;18.60;;;;;;;;;;4996315;28;99316;-78
2023/09/18 02:59:59;;;;;;;31.15;18.83;;;;;;;;;;5008834;28;100032;-78
2023/09/18 03:02:25;;;;;;;33.63;19.48;;;;;;;;;;4998875;28;99507;-79
2023/09/18 03:04:52;;;;;;;27.50;18.80;;;;;;;;;;4998532;28;100370;-80
2023/09/18 03:07:19;;;;;;;31.05;19.60;;;;;;;;;;5001851;28;99874;-78
2023/09/18 03:09:45;;;;;;;36.05;19.70;;;;;;;;;;4997057;28;101518;-78
2023/09/18 03:12:12;;;;;;;29.00;19.83;;;;;;;;;;5001841;28;99130;-78
2023/09/18 03:14:39;;;;;;;33.42;19.08;;;;;;;;;;4997758;28;100486;-76
2023/09/18 03:17:07;;;;;;;24.05;19.40;;;;;;;;;;4998061;28;100138;-78
2023/09/18 03:19:33;;;;;;;32.38;20.08;;;;;;;;;;5000272;28;98455;-78
2023/09/18 03:22:02;;;;;;;28.27;20.38;;;;;;;;;;4998673;28;100075;-78
2023/09/18 03:24:29;;;;;;;25.52;18.98;;;;;;;;;;5028671;27;101168;-76
2023/09/18 03:26:55;;;;;;;34.97;20.42;;;;;;;;;;5000599;28;98753;-77
2023/09/18 03:29:22;;;;;;;28.95;20.38;;;;;;;;;;5004745;28;99845;-78
2023/09/18 03:31:48;;;;;;;37.53;20.67;;;;;;;;;;4996714;28;100320;-78
2023/09/18 03:34:16;;;;;;;34.28;19.17;;;;;;;;;;4995946;28;102618;-76
2023/09/18 03:36:42;;;;;;;31.27;19.48;;;;;;;;;;4997294;28;99084;-79
2023/09/18 03:39:10;;;;;;;34.45;21.38;;;;;;;;;;4998660;28;99656;-79
2023/09/18 03:41:36;;;;;;;32.70;21.85;;;;;;;;;;4998088;28;99931;-78
2023/09/18 03:44:03;;;;;;;36.80;21.50;;;;;;;;;;5011002;28;99356;-79
2023/09/18 03:46:31;;;;;;;37.20;22.38;;;;;;;;;;4998784;28;99123;-79
2023/09/18 03:48:58;;;;;;;36.20;21.27;;;;;;;;;;5000385;28;98534;-79
2023/09/18 03:51:24;;;;;;;37.33;23.10;;;;;;;;;;5004764;28;98890;-78
2023/09/18 03:53:51;;;;;;;31.08;21.83;;;;;;;;;;5010323;28;101668;-78
2023/09/18 03:56:18;;;;;;;33.65;19.45;;;;;;;;;;5009890;28;101424;-78
2023/09/18 03:58:49;;;;;;;38.17;24.30;;;;;;;;;;4995585;28;100201;-78
2023/09/18 04:01:16;;;;;;;35.58;23.17;;;;;;;;;;4999918;28;100048;-79
2023/09/18 04:03:42;;;;;;;39.35;24.48;;;;;;;;;;4997264;28;99518;-78
2023/09/18 04:06:10;;;;;;;43.10;24.90;;;;;;;;;;5000367;28;99689;-78
2023/09/18 04:08:36;;;;;;;38.58;24.30;;;;;;;;;;4997823;28;99670;-79
2023/09/18 04:11:04;;;;;;;42.67;24.45;;;;;;;;;;4998172;28;99818;-78
2023/09/18 04:13:33;;;;;;;39.00;23.20;;;;;;;;;;4998103;28;99295;-78
2023/09/18 04:16:00;;;;;;;34.97;22.83;;;;;;;;;;4997329;28;98998;-78
2023/09/18 04:18:27;;;;;;;30.20;21.02;;;;;;;;;;5000402;28;99675;-77
2023/09/18 04:20:54;;;;;;;38.97;22.23;;;;;;;;;;4999469;28;98908;-78
2023/09/18 04:23:21;;;;;;;39.88;21.88;;;;;;;;;;4997545;28;101735;-77
2023/09/18 04:25:49;;;;;;;32.13;21.38;;;;;;;;;;5012326;28;98319;-77
2023/09/18 04:28:17;;;;;;;33.63;20.10;;;;;;;;;;4996330;28;99768;-77
2023/09/18 04:30:44;;;;;;;29.02;18.58;;;;;;;;;;4993671;28;101810;-78
2023/09/18 04:33:12;;;;;;;26.33;18.73;;;;;;;;;;5028186;27;99399;-76
2023/09/18 04:35:39;;;;;;;32.28;19.52;;;;;;;;;;4999681;28;99388;-79
2023/09/18 04:38:08;;;;;;;28.42;18.88;;;;;;;;;;4999473;28;98913;-78
2023/09/18 04:40:35;;;;;;;25.60;17.90;;;;;;;;;;4994022;28;99680;-78
2023/09/18 04:43:04;;;;;;;28.58;18.23;;;;;;;;;;4995943;28;101583;-77
2023/09/18 04:45:31;;;;;;;28.52;17.15;;;;;;;;;;4993200;28;98795;-77
2023/09/18 04:48:00;;;;;;;30.63;17.70;;;;;;;;;;4995363;28;99398;-79
2023/09/18 04:50:27;;;;;;;29.35;18.13;;;;;;;;;;4997212;28;101053;-79
2023/09/18 04:52:55;;;;;;;29.63;17.83;;;;;;;;;;4998206;28;99958;-76
2023/09/18 04:55:23;;;;;;;24.42;17.50;;;;;;;;;;4999277;28;99727;-77
2023/09/18 04:57:49;;;;;;;28.92;16.80;;;;;;;;;;5014390;28;99404;-78
2023/09/18 05:00:16;;;;;;;26.15;16.67;;;;;;;;;;4999240;28;99036;-78
2023/09/18 05:02:44;;;;;;;28.25;17.83;;;;;;;;;;4995930;28;101748;-79
2023/09/18 05:05:11;;;;;;;25.98;15.68;;;;;;;;;;4997177;28;98287;-77
2023/09/18 05:07:38;;;;;;;34.38;17.17;;;;;;;;;;5029910;27;101128;-80
2023/09/18 05:10:05;;;;;;;48.65;18.83;;;;;;;;;;4999714;28;100118;-78
2023/09/18 05:12:32;;;;;;;42.42;19.75;;;;;;;;;;5001904;28;100383;-79
2023/09/18 05:14:58;;;;;;;27.48;17.40;;;;;;;;;;4996997;28;99696;-77
2023/09/18 05:17:46;;;;;;;28.95;15.93;;;;;;;;;;5002732;28;100383;-78
2023/09/18 05:20:15;;;;;;;28.73;15.25;;;;;;;;;;5000062;28;98995;-77
2023/09/18 05:22:43;;;;;;;28.63;14.88;;;;;;;;;;4999708;28;100108;-77
2023/09/18 05:25:14;;;;;;;31.73;15.18;;;;;;;;;;5000520;28;99128;-77
2023/09/18 05:27:44;;;;;;;29.58;14.65;;;;;;;;;;4999748;28;99465;-77
2023/09/18 05:30:15;;;;;;;27.60;16.30;;;;;;;;;;4999070;28;100369;-77
2023/09/18 05:32:43;;;;;;;27.52;14.27;;;;;;;;;;4998894;28;99592;-77
2023/09/18 05:35:12;;;;;;;28.98;13.90;;;;;;;;;;5001183;28;98928;-77
2023/09/18 05:37:39;;;;;;;35.55;13.60;;;;;;;;;;4997124;28;99862;-77
2023/09/18 05:40:09;;;;;;;26.02;12.98;;;;;;;;;;5004869;28;98824;-77
2023/09/18 05:42:36;;;;;;;18.58;11.30;;;;;;;;;;5004437;28;99639;-78
2023/09/18 05:45:04;;;;;;;23.83;10.95;;;;;;;;;;5007891;28;98266;-76
2023/09/18 05:47:35;;;;;;;17.25;10.65;;;;;;;;;;5007368;28;99417;-78
2023/09/18 05:50:06;;;;;;;18.43;10.07;;;;;;;;;;5001556;28;99938;-76
2023/09/18 05:52:33;;;;;;;10.93;7.65;;;;;;;;;;4997109;28;99259;-76
2023/09/18 05:55:00;;;;;;;8.10;6.72;;;;;;;;;;4999105;28;99931;-76
2023/09/18 05:57:30;;;;;;;9.55;7.05;;;;;;;;;;4999584;28;99865;-73
2023/09/18 05:59:57;;;;;;;6.60;6.03;;;;;;;;;;5005931;28;98902;-77
2023/09/18 06:02:24;;;;;;;8.98;7.28;;;;;;;;;;5009053;28;101216;-78
2023/09/18 06:04:55;;;;;;;14.63;8.73;;;;;;;;;;5006918;28;99445;-76
2023/09/18 06:07:22;;;;;;;22.38;9.45;;;;;;;;;;5002427;28;98663;-74
2023/09/18 06:09:51;;;;;;;12.52;8.27;;;;;;;;;;5005729;28;100183;-77
2023/09/18 06:12:17;;;;;;;14.73;8.50;;;;;;;;;;5001241;28;99021;-77
2023/09/18 06:14:44;;;;;;;14.30;8.75;;;;;;;;;;5006701;28;99496;-77
2023/09/18 06:17:11;;;;;;;16.55;8.75;;;;;;;;;;5009058;28;98934;-76
2023/09/18 06:19:39;;;;;;;18.55;9.57;;;;;;;;;;5002330;28;100362;-77
2023/09/18 06:22:07;;;;;;;24.48;10.40;;;;;;;;;;5010364;28;99794;-81
2023/09/18 06:24:36;;;;;;;19.00;9.38;;;;;;;;;;5013201;28;99883;-78
2023/09/18 06:27:06;;;;;;;21.98;10.60;;;;;;;;;;5009034;28;99486;-78
2023/09/18 06:29:33;;;;;;;16.85;9.70;;;;;;;;;;5010497;28;100427;-78
2023/09/18 06:32:00;;;;;;;25.15;10.27;;;;;;;;;;5010204;28;98295;-77
2023/09/18 06:34:28;;;;;;;27.77;10.35;;;;;;;;;;5009834;28;98884;-78
2023/09/18 06:36:54;;;;;;;21.23;9.60;;;;;;;;;;5012262;28;99901;-79
2023/09/18 06:39:23;;;;;;;22.88;10.73;;;;;;;;;;5010674;28;98269;-78
2023/09/18 06:41:50;;;;;;;19.02;10.18;;;;;;;;;;5009953;28;98739;-78
2023/09/18 06:44:18;;;;;;;29.90;11.32;;;;;;;;;;5009405;28;101113;-79
2023/09/18 06:46:44;;;;;;;20.73;10.88;;;;;;;;;;5005847;28;98384;-79
2023/09/18 06:49:11;;;;;;;18.88;9.60;;;;;;;;;;5009305;28;98946;-79
2023/09/18 06:51:37;;;;;;;17.17;9.13;;;;;;;;;;5008735;28;99529;-77
2023/09/18 06:54:09;;;;;;;12.77;9.30;;;;;;;;;;5011040;28;99324;-76
2023/09/18 06:56:36;;;;;;;17.92;9.48;;;;;;;;;;5009533;28;99055;-76
2023/09/18 06:59:03;;;;;;;12.43;8.82;;;;;;;;;;5012668;28;98342;-76
2023/09/18 07:01:31;;;;;;;13.88;9.32;;;;;;;;;;5012053;28;98804;-77
2023/09/18 07:03:59;;;;;;;16.27;8.95;;;;;;;;;;5009812;28;100087;-75
2023/09/18 07:06:26;;;;;;;11.98;8.65;;;;;;;;;;5011852;28;98359;-74
2023/09/18 07:08:53;;;;;;;10.80;9.68;;;;;;;;;;5009172;28;100041;-75
2023/09/18 07:11:20;;;;;;;21.23;10.30;;;;;;;;;;5009856;28;98209;-76
2023/09/18 07:13:50;;;;;;;19.23;9.45;;;;;;;;;;5009696;28;101881;-74
2023/09/18 07:16:18;;;;;;;14.25;10.48;;;;;;;;;;5008035;28;99267;-75
2023/09/18 07:18:45;;;;;;;14.75;9.95;;;;;;;;;;5010132;28;100670;-76
2023/09/18 07:21:12;;;;;;;13.50;9.98;;;;;;;;;;5009958;28;99856;-78
2023/09/18 07:23:40;;;;;;;16.05;9.75;;;;;;;;;;5009564;28;99120;-76
2023/09/18 07:26:06;;;;;;;26.23;10.20;;;;;;;;;;5009778;28;98232;-77
2023/09/18 07:28:33;;;;;;;11.85;9.25;;;;;;;;;;5012995;28;99564;-78
2023/09/18 07:31:06;;;;;;;13.68;9.93;;;;;;;;;;5008793;28;98054;-77
2023/09/18 07:33:33;;;;;;;10.65;9.52;;;;;;;;;;5010332;28;99348;-77
2023/09/18 07:35:59;;;;;;;10.85;9.30;;;;;;;;;;5009290;28;99900;-77
2023/09/18 07:38:26;;;;;;;17.35;10.98;;;;;;;;;;5008331;28;98782;-76
2023/09/18 07:40:54;;;;;;;17.60;10.18;;;;;;;;;;5008997;28;99351;-78
2023/09/18 07:43:26;;;;;;;15.32;10.85;;;;;;;;;;5009336;28;99146;-78
2023/09/18 07:45:53;;;;;;;15.63;9.68;;;;;;;;;;5009605;28;98255;-77
2023/09/18 07:48:22;;;;;;;11.57;9.55;;;;;;;;;;5009552;28;99550;-78
2023/09/18 07:50:49;;;;;;;9.55;8.45;;;;;;;;;;5013035;28;99939;-77
2023/09/18 07:53:18;;;;;;;10.60;9.13;;;;;;;;;;5009190;28;98459;-77
2023/09/18 07:55:44;;;;;;;10.00;8.30;;;;;;;;;;5009834;28;100035;-77
2023/09/18 07:58:13;;;;;;;15.63;8.98;;;;;;;;;;5006280;28;98317;-77
2023/09/18 08:00:44;;;;;;;9.95;8.63;;;;;;;;;;5010926;28;99401;-77
2023/09/18 08:03:11;;;;;;;11.77;7.53;;;;;;;;;;5013249;28;100012;-76
2023/09/18 08:05:37;;;;;;;12.25;7.20;;;;;;;;;;5014156;28;98311;-77
2023/09/18 08:08:05;;;;;;;13.55;7.53;;;;;;;;;;5011412;28;99150;-77
2023/09/18 08:10:32;;;;;;;8.25;7.47;;;;;;;;;;5009587;28;99609;-77
2023/09/18 08:12:59;;;;;;;15.15;7.72;;;;;;;;;;5011564;28;98169;-76
2023/09/18 08:15:29;;;;;;;7.90;7.18;;;;;;;;;;5008930;28;99939;-76
2023/09/18 08:17:56;;;;;;;6.80;6.18;;;;;;;;;;5009175;28;99621;-75
2023/09/18 08:20:23;;;;;;;6.38;5.65;;;;;;;;;;5007662;28;98701;-75
2023/09/18 08:22:50;;;;;;;5.60;5.10;;;;;;;;;;5009226;28;99955;-75
2023/09/18 08:25:17;;;;;;;5.70;5.10;;;;;;;;;;5008871;28;98319;-76
2023/09/18 08:27:44;;;;;;;5.50;5.10;;;;;;;;;;5008353;28;99739;-76
2023/09/18 08:30:12;;;;;;;5.72;5.10;;;;;;;;;;5008401;28;99132;-76
2023/09/18 08:32:39;;;;;;;5.47;5.00;;;;;;;;;;5010069;28;98229;-77
2023/09/18 08:35:06;;;;;;;10.20;4.72;;;;;;;;;;5012135;28;99015;-78
2023/09/18 08:37:33;;;;;;;6.63;5.05;;;;;;;;;;5009072;28;98213;-76
2023/09/18 08:40:09;;;;;;;5.53;4.88;;;;;;;;;;5009333;28;98617;-75
2023/09/18 08:42:39;;;;;;;6.00;3.65;;;;;;;;;;5008728;28;99593;-78
2023/09/18 08:45:11;;;;;;;6.22;3.95;;;;;;;;;;5008887;28;98300;-76
2023/09/18 08:47:39;;;;;;;5.18;4.00;;;;;;;;;;5008800;28;98733;-82
2023/09/18 08:50:07;;;;;;;4.25;4.03;;;;;;;;;;5008394;28;100001;-78
2023/09/18 08:52:35;;;;;;;4.25;3.95;;;;;;;;;;5006898;28;98247;-77
2023/09/18 08:55:02;;;;;;;4.97;4.50;;;;;;;;;;5008242;28;99552;-75
2023/09/18 08:57:30;;;;;;;6.13;3.83;;;;;;;;;;5019115;28;98292;-77
2023/09/18 09:00:05;;;;;;;7.93;3.95;;;;;;;;;;5016067;28;98502;-76
2023/09/18 09:02:32;;;;;;;6.80;4.38;;;;;;;;;;5013946;28;98453;-77
2023/09/18 09:04:59;;;;;;;5.47;3.85;;;;;;;;;;5010837;28;98264;-77
2023/09/18 09:07:26;;;;;;;6.40;3.42;;;;;;;;;;5008345;28;99490;-77
2023/09/18 09:09:53;;;;;;;4.70;4.28;;;;;;;;;;5008463;28;99659;-78
2023/09/18 09:12:39;;;;;;;4.78;4.10;;;;;;;;;;5008563;28;98304;-77
2023/09/18 09:15:05;;;;;;;5.25;4.18;;;;;;;;;;5008252;28;99480;-78
2023/09/18 09:17:32;;;;;;;4.75;3.67;;;;;;;;;;5010591;28;100000;-79
2023/09/18 09:20:10;;;;;;;5.88;4.65;;;;;;;;;;5007561;28;98608;-77
2023/09/18 09:22:40;;;;;;;4.63;4.10;;;;;;;;;;5006630;28;99203;-77
2023/09/18 09:25:22;;;;;;;3.70;3.50;;;;;;;;;;5008824;28;98215;-76
2023/09/18 09:27:48;;;;;;;3.50;3.03;;;;;;;;;;5008590;28;99097;-77
2023/09/18 09:30:21;;;;;;;4.75;3.60;;;;;;;;;;5007278;28;100019;-77
2023/09/18 09:32:50;;;;;;;5.60;3.65;;;;;;;;;;5006983;28;98025;-77
2023/09/18 09:35:27;;;;;;;6.13;3.40;;;;;;;;;;5011936;28;99444;-76
2023/09/18 09:37:58;;;;;;;7.32;3.38;;;;;;;;;;5007865;28;99930;-77
2023/09/18 09:40:25;;;;;;;4.90;3.20;;;;;;;;;;5014943;28;98231;-76
2023/09/18 09:42:53;;;;;;;3.35;2.78;;;;;;;;;;5011587;28;99129;-77
2023/09/18 09:45:20;;;;;;;3.03;2.83;;;;;;;;;;5010327;28;98209;-76
2023/09/18 09:47:47;;;;;;;2.78;2.58;;;;;;;;;;5011480;28;98885;-78
2023/09/18 09:50:19;;;;;;;3.72;2.75;;;;;;;;;;5011623;28;98959;-77
2023/09/18 09:52:49;;;;;;;3.30;2.60;;;;;;;;;;5010994;28;98729;-77
2023/09/18 09:55:25;;;;;;;6.07;2.60;;;;;;;;;;5014646;28;99455;-76
2023/09/18 09:57:57;;;;;;;4.03;2.38;;;;;;;;;;5013142;28;99955;-77
2023/09/18 10:00:40;;;;;;;3.20;2.90;;;;;;;;;;5011934;28;98222;-78
2023/09/18 10:03:08;;;;;;;5.57;3.10;;;;;;;;;;5011755;28;98976;-76
2023/09/18 10:05:37;;;;;;;4.15;3.13;;;;;;;;;;5007587;28;99085;-77
2023/09/18 10:08:07;;;;;;;4.68;3.22;;;;;;;;;;5010345;28;99557;-78
2023/09/18 10:10:46;;;;;;;5.25;3.50;;;;;;;;;;5009104;28;100043;-77
2023/09/18 10:13:17;;;;;;;3.67;3.47;;;;;;;;;;5009869;28;98263;-78
2023/09/18 10:15:44;;;;;;;4.47;4.18;;;;;;;;;;5011899;28;99693;-77
2023/09/18 10:18:17;;;;;;;6.90;3.38;;;;;;;;;;5010240;28;99257;-77
2023/09/18 10:20:48;;;;;;;3.90;3.60;;;;;;;;;;5010424;28;98780;-77
2023/09/18 10:23:26;;;;;;;4.18;3.63;;;;;;;;;;5010986;28;98527;-77
2023/09/18 10:25:55;;;;;;;3.45;3.25;;;;;;;;;;5010445;28;100245;-78
2023/09/18 10:28:23;;;;;;;4.55;2.92;;;;;;;;;;5007799;28;98715;-76
2023/09/18 10:30:51;;;;;;;3.58;3.28;;;;;;;;;;5010773;28;100001;-76
2023/09/18 10:33:17;;;;;;;3.03;2.80;;;;;;;;;;5010172;28;98383;-78
2023/09/18 10:35:47;;;;;;;3.20;2.90;;;;;;;;;;5010341;28;99417;-77
2023/09/18 10:38:17;;;;;;;6.25;3.92;;;;;;;;;;5009562;28;99270;-77
2023/09/18 10:40:43;;;;;;;3.65;3.33;;;;;;;;;;5010194;28;98192;-76
2023/09/18 10:43:13;;;;;;;3.78;3.53;;;;;;;;;;5009993;28;99686;-77
2023/09/18 10:45:40;;;;;;;5.40;3.75;;;;;;;;;;5011344;28;100292;-77
2023/09/18 10:48:08;;;;;;;3.70;3.40;;;;;;;;;;5012887;28;98338;-76
2023/09/18 10:50:35;;;;;;;6.22;3.25;;;;;;;;;;5010722;28;99053;-76
2023/09/18 10:53:02;;;;;;;4.78;3.80;;;;;;;;;;5009811;28;99191;-79
2023/09/18 10:55:28;;;;;;;4.97;3.25;;;;;;;;;;5009573;28;99917;-78
2023/09/18 10:57:56;;;;;;;6.43;3.80;;;;;;;;;;5010453;28;98975;-76
2023/09/18 11:00:27;;;;;;;3.42;3.30;;;;;;;;;;5010402;28;99445;-76
2023/09/18 11:03:08;;;;;;;4.80;3.67;;;;;;;;;;5007665;28;99158;-76
2023/09/18 11:05:35;;;;;;;3.70;3.40;;;;;;;;;;5010181;28;101040;-77
2023/09/18 11:08:21;;;;;;;4.03;3.72;;;;;;;;;;5013069;28;98299;-77
2023/09/18 11:11:09;;;;;;;3.80;3.60;;;;;;;;;;5004479;28;99159;-77
2023/09/18 11:13:43;;;;;;;3.63;3.25;;;;;;;;;;5009874;28;99810;-77
2023/09/18 11:16:15;;;;;;;5.43;3.30;;;;;;;;;;5009191;28;98652;-77
2023/09/18 11:18:42;;;;;;;5.32;3.55;;;;;;;;;;5010382;28;99036;-78
2023/09/18 11:21:09;;;;;;;13.55;3.38;;;;;;;;;;5010379;28;98298;-78
2023/09/18 11:23:42;;;;;;;4.30;3.60;;;;;;;;;;5009563;28;99574;-78
2023/09/18 11:26:09;;;;;;;5.47;3.28;;;;;;;;;;5009475;28;98960;-75
2023/09/18 11:28:39;;;;;;;3.50;3.22;;;;;;;;;;5002458;28;98262;-75
2023/09/18 11:31:07;;;;;;;4.28;3.03;;;;;;;;;;5012847;28;99448;-77
2023/09/18 11:33:36;;;;;;;5.50;3.20;;;;;;;;;;5010010;28;98231;-77
2023/09/18 11:36:14;;;;;;;3.50;3.20;;;;;;;;;;5009503;28;98545;-76
2023/09/18 11:38:51;;;;;;;8.32;3.17;;;;;;;;;;5007676;28;99871;-77
2023/09/18 11:41:27;;;;;;;3.55;2.30;;;;;;;;;;5009580;28;98113;-83
2023/09/18 11:44:06;;;;;;;2.33;2.22;;;;;;;;;;5010026;28;99020;-78
2023/09/18 11:46:33;;;;;;;6.53;2.50;;;;;;;;;;5009609;28;98886;-78
2023/09/18 11:49:05;;;;;;;3.67;2.63;;;;;;;;;;5011181;28;98299;-78
2023/09/18 11:51:32;;;;;;;3.67;2.63;;;;;;;;;;5009962;28;99817;-78
2023/09/18 11:53:58;;;;;;;2.25;2.15;;;;;;;;;;5016144;27;99110;-78
2023/09/18 11:56:25;;;;;;;3.22;2.40;;;;;;;;;;5008351;28;99683;-78
2023/09/18 11:58:52;;;;;;;4.18;2.75;;;;;;;;;;5005171;28;100059;-78
2023/09/18 12:01:18;;;;;;;4.40;3.05;;;;;;;;;;5009167;28;99527;-79
2023/09/18 12:03:52;;;;;;;5.60;2.67;;;;;;;;;;5009993;28;99466;-78
2023/09/18 12:06:19;;;;;;;3.50;3.20;;;;;;;;;;5008332;28;100163;-78
2023/09/18 12:08:46;;;;;;;4.75;2.95;;;;;;;;;;5009219;28;98278;-78
2023/09/18 12:11:16;;;;;;;5.13;3.72;;;;;;;;;;5008340;28;99471;-77
2023/09/18 12:13:46;;;;;;;4.40;3.33;;;;;;;;;;5009218;28;99979;-80
2023/09/18 12:16:15;;;;;;;5.57;3.30;;;;;;;;;;5014746;27;98837;-79
2023/09/18 12:18:48;;;;;;;11.60;3.83;;;;;;;;;;5008437;28;99093;-79
2023/09/18 12:21:17;;;;;;;3.42;3.00;;;;;;;;;;5016703;28;98288;-78
2023/09/18 12:23:45;;;;;;;5.90;3.15;;;;;;;;;;5017675;28;98701;-80
2023/09/18 12:26:15;;;;;;;4.50;3.08;;;;;;;;;;5012589;28;98539;-80
2023/09/18 12:28:42;;;;;;;4.95;2.33;;;;;;;;;;5010411;28;98204;-79
2023/09/18 12:31:10;;;;;;;4.93;2.78;;;;;;;;;;5010382;28;99402;-79
2023/09/18 12:33:37;;;;;;;4.15;3.00;;;;;;;;;;4999958;28;100063;-79
2023/09/18 12:36:04;;;;;;;6.28;3.05;;;;;;;;;;5009767;28;98193;-80
2023/09/18 12:38:31;;;;;;;8.75;2.78;;;;;;;;;;5008229;28;100395;-79
2023/09/18 12:41:05;;;;;;;14.25;2.50;;;;;;;;;;5007987;28;99775;-79
2023/09/18 12:43:37;;;;;;;7.05;2.67;;;;;;;;;;5008803;28;99718;-80
2023/09/18 12:46:04;;;;;;;10.23;2.88;;;;;;;;;;5009726;28;100645;-79
2023/09/18 12:48:31;;;;;;;6.65;2.88;;;;;;;;;;5011223;28;99320;-80
2023/09/18 12:51:05;;;;;;;3.75;2.25;;;;;;;;;;5013416;28;98133;-79
2023/09/18 12:53:32;;;;;;;2.72;2.30;;;;;;;;;;5007810;28;99161;-77
2023/09/18 12:56:15;;;;;;;2.97;2.42;;;;;;;;;;5009063;28;98254;-78
2023/09/18 12:58:45;;;;;;;3.40;2.60;;;;;;;;;;5008923;28;99025;-80
2023/09/18 13:01:31;;;;;;;4.50;2.83;;;;;;;;;;5011193;28;100023;-81
2023/09/18 13:04:05;;;;;;;3.00;2.80;;;;;;;;;;5005894;28;100188;-79
2023/09/18 13:06:32;;;;;;;2.53;2.42;;;;;;;;;;4998129;28;99025;-79
2023/09/18 13:09:17;;;;;;;5.55;2.72;;;;;;;;;;5007749;28;98314;-78
2023/09/18 13:11:54;;;;;;;5.70;2.67;;;;;;;;;;5008933;28;99374;-79
2023/09/18 13:14:20;;;;;;;4.40;2.78;;;;;;;;;;5007783;28;100174;-79
2023/09/18 13:16:47;;;;;;;4.68;2.42;;;;;;;;;;5007870;28;98013;-78
2023/09/18 13:19:13;;;;;;;2.50;2.30;;;;;;;;;;5008752;28;99641;-79
2023/09/18 13:21:46;;;;;;;4.38;2.40;;;;;;;;;;5010469;28;99091;-79
2023/09/18 13:24:28;;;;;;;5.80;2.65;;;;;;;;;;5008827;28;99351;-79
2023/09/18 13:26:56;;;;;;;3.10;2.90;;;;;;;;;;5008608;28;99041;-79
2023/09/18 13:29:23;;;;;;;6.95;2.55;;;;;;;;;;5007481;28;98414;-80
2023/09/18 13:31:51;;;;;;;10.32;2.67;;;;;;;;;;5007090;28;98818;-80
2023/09/18 13:34:21;;;;;;;7.20;2.58;;;;;;;;;;5008060;28;98128;-79
2023/09/18 13:36:48;;;;;;;4.93;2.85;;;;;;;;;;5006992;28;98562;-79
2023/09/18 13:39:16;;;;;;;5.80;4.05;;;;;;;;;;5008015;28;98168;-79
2023/09/18 13:41:43;;;;;;;3.03;2.25;;;;;;;;;;5005110;28;98763;-78
2023/09/18 13:44:10;;;;;;;6.03;2.53;;;;;;;;;;5009019;28;98416;-80
2023/09/18 13:46:37;;;;;;;10.38;2.40;;;;;;;;;;5005980;28;100091;-79
2023/09/18 13:49:04;;;;;;;3.83;2.47;;;;;;;;;;5005145;28;99847;-79
2023/09/18 13:51:33;;;;;;;2.22;2.03;;;;;;;;;;5009987;28;99818;-78
2023/09/18 13:54:00;;;;;;;3.50;1.95;;;;;;;;;;5000074;28;99032;-79
2023/09/18 13:56:30;;;;;;;6.45;2.17;;;;;;;;;;5001813;28;98457;-78
2023/09/18 13:58:56;;;;;;;3.13;2.13;;;;;;;;;;5002118;28;99865;-79
2023/09/18 14:01:25;;;;;;;5.88;1.88;;;;;;;;;;5006790;28;100013;-80
2023/09/18 14:03:52;;;;;;;13.60;2.58;;;;;;;;;;5005293;28;99603;-81
2023/09/18 14:06:18;;;;;;;4.72;1.90;;;;;;;;;;5008340;28;98795;-79
2023/09/18 14:08:45;;;;;;;2.25;1.92;;;;;;;;;;5004134;28;99156;-79
2023/09/18 14:11:12;;;;;;;2.15;1.65;;;;;;;;;;5002485;28;98467;-79
2023/09/18 14:13:41;;;;;;;2.55;1.67;;;;;;;;;;5007144;28;99936;-80
2023/09/18 14:16:08;;;;;;;2.55;1.60;;;;;;;;;;5006573;28;98236;-79
2023/09/18 14:18:36;;;;;;;1.50;1.40;;;;;;;;;;5006418;28;99729;-79
2023/09/18 14:21:06;;;;;;;2.10;1.83;;;;;;;;;;5008395;28;99915;-83
2023/09/18 14:23:33;;;;;;;1.75;1.63;;;;;;;;;;5009710;28;98359;-84
2023/09/18 14:26:01;;;;;;;1.42;1.27;;;;;;;;;;5011779;28;99405;-81
2023/09/18 14:28:27;;;;;;;1.27;1.23;;;;;;;;;;5013490;28;100003;-80
2023/09/18 14:30:54;;;;;;;2.28;1.38;;;;;;;;;;5009626;28;99464;-79
2023/09/18 14:33:20;;;;;;;2.42;1.25;;;;;;;;;;5010347;28;100244;-79